createdAt,value
2023-04-23T00:03:46.195Z,57.80
2023-04-23T00:07:47.969Z,57.31
2023-04-23T00:11:50.798Z,60.62
2023-04-23T00:15:55.088Z,60.81
2023-04-23T00:19:55.834Z,61.70
2023-04-23T00:23:56.244Z,60.90
2023-04-23T00:27:56.902Z,60.11
2023-04-23T00:32:00.865Z,59.72
2023-04-23T00:36:01.456Z,59.03
2023-04-23T00:40:02.660Z,58.10
2023-04-23T00:44:04.353Z,57.84
2023-04-23T00:48:09.129Z,58.10
2023-04-23T00:52:10.177Z,57.68
2023-04-23T00:56:11.739Z,57.54
2023-04-23T01:00:15.818Z,56.81
2023-04-23T01:04:23.094Z,57.87
2023-04-23T01:08:27.948Z,57.16
2023-04-23T01:12:29.496Z,56.87
2023-04-23T01:16:30.361Z,56.34
2023-04-23T01:20:34.223Z,56.98
2023-04-23T01:24:38.626Z,56.52
2023-04-23T01:28:40.543Z,55.54
2023-04-23T01:32:43.232Z,55.87
2023-04-23T01:36:46.847Z,56.14
2023-04-23T01:40:50.328Z,55.99
2023-04-23T01:44:51.470Z,56.41
2023-04-23T01:48:52.261Z,55.96
2023-04-23T01:52:54.307Z,56.92
2023-04-23T01:56:59.187Z,56.86
2023-04-23T02:01:00.575Z,56.94
2023-04-23T02:05:04.940Z,57.29
2023-04-23T02:09:05.924Z,57.31
2023-04-23T02:13:09.161Z,58.06
2023-04-23T02:17:09.760Z,57.99
2023-04-23T02:21:11.483Z,57.36
2023-04-23T02:25:15.922Z,58.24
2023-04-23T02:29:19.328Z,58.47
2023-04-23T02:33:20.324Z,58.50
2023-04-23T02:37:21.124Z,58.17
2023-04-23T02:41:21.872Z,57.95
2023-04-23T02:45:25.570Z,57.38
2023-04-23T02:49:26.445Z,57.16
2023-04-23T02:53:26.938Z,56.43
2023-04-23T02:57:27.823Z,56.79
2023-04-23T03:01:33.385Z,56.59
2023-04-23T03:05:34.475Z,56.35
2023-04-23T03:09:35.192Z,55.83
2023-04-23T03:13:36.055Z,56.21
2023-04-23T03:17:39.658Z,56.31
2023-04-23T03:21:41.059Z,56.37
2023-04-23T03:25:42.584Z,56.10
2023-04-23T03:29:43.370Z,56.51
2023-04-23T03:33:47.066Z,56.47
2023-04-23T03:37:51.082Z,56.47
2023-04-23T03:41:54.653Z,56.69
2023-04-23T03:46:00.255Z,56.69
2023-04-23T03:50:05.813Z,56.52
2023-04-23T03:54:07.070Z,56.15
2023-04-23T03:58:10.107Z,55.50
2023-04-23T04:02:21.939Z,55.51
2023-04-23T04:06:29.302Z,55.67
2023-04-23T04:10:29.795Z,54.50
2023-04-23T04:14:31.548Z,54.04
2023-04-23T04:18:32.429Z,52.86
2023-04-23T04:22:35.905Z,52.51
2023-04-23T04:26:37.617Z,51.39
2023-04-23T04:30:38.508Z,51.68
2023-04-23T04:34:39.596Z,52.58
2023-04-23T04:38:44.151Z,52.63
2023-04-23T04:42:46.904Z,53.59
2023-04-23T04:46:48.555Z,53.36
2023-04-23T04:50:49.981Z,53.41
2023-04-23T04:54:52.905Z,52.02
2023-04-23T04:58:53.566Z,52.13
2023-04-23T05:02:54.636Z,52.63
2023-04-23T05:06:55.678Z,52.47
2023-04-23T05:10:59.828Z,51.97
2023-04-23T05:15:00.682Z,51.70
2023-04-23T05:19:01.393Z,51.57
2023-04-23T05:23:03.288Z,51.68
2023-04-23T05:27:06.928Z,52.30
2023-04-23T05:31:07.309Z,52.32
2023-04-23T05:35:09.383Z,52.38
2023-04-23T05:39:09.753Z,52.78
2023-04-23T05:43:13.409Z,53.08
2023-04-23T05:47:18.082Z,51.99
2023-04-23T05:51:18.687Z,52.83
2023-04-23T05:55:20.726Z,53.01
2023-04-23T05:59:23.991Z,53.38
2023-04-23T06:03:25.310Z,54.58
2023-04-23T06:07:26.147Z,56.39
2023-04-23T06:11:27.065Z,55.43
2023-04-23T06:15:30.657Z,57.61
2023-04-23T06:19:31.455Z,58.48
2023-04-23T06:23:32.031Z,58.93
2023-04-23T06:27:32.871Z,59.23
2023-04-23T06:31:42.113Z,58.72
2023-04-23T06:35:43.210Z,58.31
2023-04-23T06:39:43.848Z,58.87
2023-04-23T06:43:46.315Z,59.43
2023-04-23T06:47:59.010Z,59.03
2023-04-23T06:51:59.513Z,60.40
2023-04-23T06:56:00.201Z,60.63
2023-04-23T07:00:00.815Z,59.68
2023-04-23T07:04:10.786Z,59.44
2023-04-23T07:08:15.401Z,58.29
2023-04-23T07:12:15.867Z,58.40
2023-04-23T07:16:16.558Z,58.19
2023-04-23T07:20:20.138Z,58.52
2023-04-23T07:24:20.935Z,59.61
2023-04-23T07:28:23.217Z,59.05
2023-04-23T07:32:28.235Z,59.74
2023-04-23T07:36:33.293Z,59.21
2023-04-23T07:40:33.954Z,58.45
2023-04-23T07:44:34.651Z,59.07
2023-04-23T07:48:35.235Z,58.30
2023-04-23T07:52:38.254Z,58.29
2023-04-23T07:56:38.711Z,57.41
2023-04-23T08:00:39.944Z,60.10
2023-04-23T08:04:40.642Z,59.06
2023-04-23T08:08:45.351Z,58.07
2023-04-23T08:12:46.539Z,57.84
2023-04-23T08:16:47.544Z,58.64
2023-04-23T08:20:48.151Z,57.79
2023-04-23T08:24:51.326Z,57.94
2023-04-23T08:28:52.334Z,56.88
2023-04-23T08:32:54.119Z,56.70
2023-04-23T08:36:55.007Z,56.06
2023-04-23T08:41:04.470Z,55.54
2023-04-23T08:45:07.919Z,53.42
2023-04-23T08:49:11.486Z,54.25
2023-04-23T08:53:13.920Z,51.05
2023-04-23T08:57:20.009Z,51.28
2023-04-23T09:01:21.892Z,51.62
2023-04-23T09:05:22.453Z,50.40
2023-04-23T09:09:26.940Z,50.91
2023-04-23T09:13:30.296Z,49.20
2023-04-23T09:17:33.148Z,47.08
2023-04-23T09:21:33.728Z,46.79
2023-04-23T09:25:34.503Z,48.07
2023-04-23T09:29:38.556Z,49.14
2023-04-23T09:33:40.054Z,50.02
2023-04-23T09:37:45.230Z,49.31
2023-04-23T09:41:46.566Z,49.60
2023-04-23T09:45:57.240Z,48.92
2023-04-23T09:49:57.859Z,49.65
2023-04-23T09:53:58.264Z,50.44
2023-04-23T09:57:58.757Z,50.94
2023-04-23T10:02:07.497Z,51.17
2023-04-23T10:06:17.253Z,51.23
2023-04-23T10:10:26.781Z,51.06
2023-04-23T10:14:29.677Z,50.07
2023-04-23T10:18:37.922Z,49.96
2023-04-23T10:22:42.212Z,50.14
2023-04-23T10:26:47.815Z,50.92
2023-04-23T10:30:49.372Z,50.52
2023-04-23T10:34:52.678Z,50.60
2023-04-23T10:38:58.265Z,50.35
2023-04-23T10:43:01.015Z,50.00
2023-04-23T10:47:04.814Z,49.79
2023-04-23T10:51:31.857Z,48.79
2023-04-23T10:55:38.066Z,45.34
2023-04-23T10:59:43.390Z,41.46
2023-04-23T11:03:49.616Z,41.72
2023-04-23T11:08:19.333Z,41.95
2023-04-23T11:12:36.106Z,41.59
2023-04-23T11:16:36.776Z,41.84
2023-04-23T11:20:39.072Z,42.86
2023-04-23T11:24:47.205Z,41.74
2023-04-23T11:28:54.124Z,43.01
2023-04-23T11:33:00.400Z,43.20
2023-04-23T11:37:06.322Z,43.38
2023-04-23T11:41:10.034Z,43.25
2023-04-23T11:45:19.092Z,44.74
2023-04-23T11:49:20.409Z,44.78
2023-04-23T11:53:21.881Z,46.58
2023-04-23T11:57:25.499Z,44.19
2023-04-23T12:01:26.191Z,41.08
2023-04-23T12:05:31.489Z,37.61
2023-04-23T12:09:32.734Z,34.94
2023-04-23T12:13:36.960Z,34.65
2023-04-23T12:17:37.944Z,32.68
2023-04-23T12:21:50.278Z,33.66
2023-04-23T12:25:51.078Z,35.33
2023-04-23T12:30:05.721Z,36.74
2023-04-23T12:34:10.369Z,37.98
2023-04-23T12:38:25.851Z,36.63
2023-04-23T12:42:27.278Z,36.01
2023-04-23T12:46:31.863Z,37.21
2023-04-23T12:50:33.792Z,34.73
2023-04-23T12:54:37.816Z,34.19
2023-04-23T12:58:38.997Z,35.45
2023-04-23T13:02:42.283Z,38.91
2023-04-23T13:06:45.168Z,36.41
2023-04-23T13:10:45.783Z,37.73
2023-04-23T13:14:46.493Z,36.45
2023-04-23T13:18:51.761Z,36.89
2023-04-23T13:22:52.472Z,37.24
2023-04-23T13:26:53.108Z,38.41
2023-04-23T13:30:53.845Z,38.35
2023-04-23T13:34:57.188Z,38.37
2023-04-23T13:38:59.756Z,38.76
2023-04-23T13:43:00.163Z,39.73
2023-04-23T13:47:01.667Z,38.04
2023-04-23T13:51:13.488Z,36.24
2023-04-23T13:55:22.781Z,36.27
2023-04-23T13:59:23.307Z,36.22
2023-04-23T14:03:23.844Z,36.05
2023-04-23T14:07:28.614Z,35.28
2023-04-23T14:11:29.510Z,36.13
2023-04-23T14:15:30.937Z,34.56
2023-04-23T14:19:34.764Z,33.16
2023-04-23T14:23:59.684Z,34.46
2023-04-23T14:28:07.852Z,36.69
2023-04-23T14:32:08.979Z,36.57
2023-04-23T14:36:11.625Z,35.63
2023-04-23T14:40:20.227Z,32.58
2023-04-23T14:44:23.468Z,31.22
2023-04-23T14:48:24.256Z,29.78
2023-04-23T14:52:27.216Z,28.73
2023-04-23T14:56:30.354Z,27.61
2023-04-23T15:00:32.892Z,29.83
2023-04-23T15:04:34.114Z,31.17
2023-04-23T15:08:35.782Z,31.71
2023-04-23T15:13:06.525Z,32.97
2023-04-23T15:17:06.929Z,32.26
2023-04-23T15:21:07.475Z,30.68
2023-04-23T15:25:09.469Z,30.72
2023-04-23T15:29:14.101Z,30.25
2023-04-23T15:33:15.445Z,31.81
2023-04-23T15:37:21.439Z,31.20
2023-04-23T15:41:21.826Z,31.21
2023-04-23T15:45:27.436Z,29.30
2023-04-23T15:49:27.874Z,28.13
2023-04-23T15:53:30.559Z,27.72
2023-04-23T15:57:33.537Z,29.45
2023-04-23T16:01:38.088Z,32.20
2023-04-23T16:05:38.916Z,33.31
2023-04-23T16:09:39.786Z,33.16
2023-04-23T16:13:41.784Z,32.82
2023-04-23T16:17:45.545Z,34.37
2023-04-23T16:21:46.252Z,34.22
2023-04-23T16:25:47.607Z,34.08
2023-04-23T16:29:51.130Z,35.10
2023-04-23T16:33:54.628Z,36.11
2023-04-23T16:37:55.972Z,36.56
2023-04-23T16:41:58.561Z,37.88
2023-04-23T16:46:02.493Z,37.80
2023-04-23T16:50:06.145Z,37.67
2023-04-23T16:54:07.249Z,38.06
2023-04-23T16:58:14.886Z,38.11
2023-04-23T17:02:15.548Z,39.09
2023-04-23T17:06:29.955Z,39.94
2023-04-23T17:10:30.404Z,40.22
2023-04-23T17:14:31.134Z,41.39
2023-04-23T17:18:34.656Z,41.89
2023-04-23T17:22:38.533Z,41.89
2023-04-23T17:26:39.969Z,42.59
2023-04-23T17:30:41.157Z,43.29
2023-04-23T17:34:43.460Z,43.53
2023-04-23T17:38:49.485Z,43.05
2023-04-23T17:42:50.083Z,43.30
2023-04-23T17:46:52.214Z,43.22
2023-04-23T17:50:54.754Z,44.38
2023-04-23T17:54:57.829Z,43.64
2023-04-23T17:58:59.321Z,43.78
2023-04-23T18:03:01.065Z,43.68
2023-04-23T18:07:01.907Z,43.76
2023-04-23T18:11:05.994Z,44.14
2023-04-23T18:15:12.586Z,44.11
2023-04-23T18:19:14.683Z,44.35
2023-04-23T18:23:15.826Z,45.53
2023-04-23T18:27:19.888Z,45.70
2023-04-23T18:31:21.846Z,46.25
2023-04-23T18:35:22.654Z,46.46
2023-04-23T18:39:23.310Z,46.95
2023-04-23T18:43:28.643Z,47.13
2023-04-23T18:47:37.214Z,47.01
2023-04-23T18:51:47.217Z,47.14
2023-04-23T18:55:50.863Z,47.15
2023-04-23T18:59:54.369Z,46.89
2023-04-23T19:03:56.851Z,46.74
2023-04-23T19:07:57.425Z,47.02
2023-04-23T19:12:01.744Z,47.66
2023-04-23T19:16:04.929Z,48.25
2023-04-23T19:20:05.746Z,48.23
2023-04-23T19:24:07.324Z,47.62
2023-04-23T19:28:08.504Z,47.63
2023-04-23T19:32:11.587Z,47.43
2023-04-23T19:36:15.164Z,47.38
2023-04-23T19:40:16.544Z,47.70
2023-04-23T19:44:18.462Z,48.62
2023-04-23T19:48:23.242Z,49.10
2023-04-23T19:52:30.062Z,49.00
2023-04-23T19:56:33.816Z,56.50
2023-04-23T20:00:37.867Z,60.16
2023-04-23T20:04:43.282Z,62.06
2023-04-23T20:09:04.786Z,61.29
2023-04-23T20:13:05.764Z,61.17
2023-04-23T20:17:06.421Z,61.05
2023-04-23T20:21:09.950Z,61.33
2023-04-23T20:25:13.531Z,60.51
2023-04-23T20:29:14.314Z,60.58
2023-04-23T20:33:16.129Z,58.75
2023-04-23T20:37:24.116Z,58.70
2023-04-23T20:41:27.112Z,59.15
2023-04-23T20:45:27.493Z,59.71
2023-04-23T20:49:29.058Z,62.03
2023-04-23T20:53:33.315Z,62.21
2023-04-23T20:57:34.921Z,62.68
2023-04-23T21:01:35.601Z,60.69
2023-04-23T21:05:38.776Z,61.73
2023-04-23T21:09:42.256Z,60.42
2023-04-23T21:13:46.408Z,60.21
2023-04-23T21:17:48.424Z,59.31
2023-04-23T21:21:49.144Z,58.90
2023-04-23T21:25:52.812Z,58.79
2023-04-23T21:29:54.838Z,58.01
2023-04-23T21:33:56.847Z,58.12
2023-04-23T21:37:57.793Z,58.10
2023-04-23T21:42:05.204Z,58.84
2023-04-23T21:46:07.346Z,59.02
2023-04-23T21:50:11.215Z,59.15
2023-04-23T21:54:12.358Z,59.50
2023-04-23T21:58:17.976Z,60.28
2023-04-23T22:02:20.344Z,59.69
2023-04-23T22:06:21.455Z,59.30
2023-04-23T22:10:24.292Z,59.11
2023-04-23T22:14:27.698Z,59.16
2023-04-23T22:18:31.471Z,60.33
2023-04-23T22:22:32.103Z,60.60
2023-04-23T22:26:36.340Z,59.37
2023-04-23T22:30:40.402Z,60.00
2023-04-23T22:34:42.066Z,58.82
2023-04-23T22:38:43.599Z,58.86
2023-04-23T22:42:49.230Z,60.04
2023-04-23T22:46:52.613Z,61.23
2023-04-23T22:50:54.326Z,61.50
2023-04-23T22:54:55.245Z,61.80
2023-04-23T22:58:55.878Z,61.04
2023-04-23T23:02:59.535Z,61.85
2023-04-23T23:06:59.893Z,61.38
2023-04-23T23:11:00.211Z,61.48
2023-04-23T23:15:02.116Z,60.92
2023-04-23T23:19:09.749Z,61.26
2023-04-23T23:23:10.359Z,61.35
2023-04-23T23:27:11.505Z,61.17
2023-04-23T23:31:13.068Z,61.90
2023-04-23T23:35:16.617Z,61.44
2023-04-23T23:39:19.317Z,61.01
2023-04-23T23:43:19.844Z,61.72
2023-04-23T23:47:22.231Z,61.76
2023-04-23T23:51:26.234Z,61.94
2023-04-23T23:55:26.942Z,61.90
2023-04-23T23:59:28.199Z,62.24
